Flight Track Log - Related Links

Times and Time Zones

All times are in EDT time to prevent confusion due to time zone crossing. See the AWE1741 flight status page for this flight to view local times or setup timezone preferences in your user account.

Time Position Orientation Groundspeed Altitude Reporting Facility
EDT Latitude Longitude Course Direction KTS MPH feet Rate Location/Type
07:25PM 28.0000 -82.5500 North 160 184 800  Level Tampa TRACON
07:25PM 28.0167 -82.5333 360° North 161 185 1,800 2,050 Climbing Tampa TRACON
07:28PM 28.3263 -82.5667 North  Level FlightAware Approximate
07:28PM 28.1517 -82.5536 352° North 256 295 6,300  Level Jacksonville Center
07:29PM 28.4478 -82.5731 355° North  Level FlightAware Approximate
07:29PM 28.2289 -82.5628 354° North 267 307 9,300  Level Jacksonville Center
07:30PM 28.5693 -82.5833 North  Level FlightAware Approximate
07:30PM 28.3122 -82.5742 353° North 282 325 11,200  Level Jacksonville Center
07:31PM 28.4061 -82.5833 355° North 315 362 13,400 2,250 Climbing Jacksonville Center
07:32PM 28.5086 -82.5856 359° North 340 391 15,700 2,200 Climbing Jacksonville Center
07:33PM 28.6150 -82.5875 359° North 361 415 17,800 2,050 Climbing Jacksonville Center
07:34PM 28.7319 -82.5942 357° North 369 425 19,800 1,950 Climbing Jacksonville Center
07:35PM 28.8383 -82.6128 351° North 381 438 21,700 1,750 Climbing Jacksonville Center
07:36PM 28.9511 -82.6269 354° North 391 450 23,300 1,700 Climbing Jacksonville Center
07:37PM 29.0639 -82.6431 353° North 398 458 25,100 1,500 Climbing Jacksonville Center
07:38PM 29.1786 -82.6594 353° North 404 465 26,300 1,250 Climbing Jacksonville Center
07:39PM 29.2956 -82.6758 353° North 415 478 27,600 1,100 Climbing Jacksonville Center
07:40PM 29.4186 -82.6900 354° North 427 491 28,500 950 Climbing Jacksonville Center
07:41PM 29.5439 -82.6944 358° North 437 503 29,500 1,050 Climbing Jacksonville Center
07:42PM 29.6714 -82.6942 360° North 449 517 30,600 1,150 Climbing Jacksonville Center
07:43PM 29.7986 -82.6914 North 449 517 31,800 1,300 Climbing Jacksonville Center
07:44PM 29.9261 -82.6911 360° North 449 517 33,200 1,200 Climbing Jacksonville Center
07:45PM 30.0514 -82.6886 North 449 517 34,200 1,100 Climbing Jacksonville Center
07:46PM 30.1767 -82.6858 North 449 517 35,400 1,250 Climbing Jacksonville Center
07:47PM 30.2997 -82.6856 360° North 439 505 36,700 1,150 Climbing Jacksonville Center
07:48PM 30.4231 -82.6853 360° North 439 505 37,700 850 Climbing Jacksonville Center
07:49PM 30.5461 -82.6633 North 439 505 38,400 500 Climbing Jacksonville Center
07:50PM 30.6483 -82.6222 19° North 432 497 38,700 300 Climbing Jacksonville Center
07:51PM 30.7631 -82.5639 24° Northeast 437 503 39,000 150 Climbing Jacksonville Center
07:52PM 30.8756 -82.4908 29° Northeast 449 517 39,000  Level Jacksonville Center
07:53PM 30.9903 -82.4200 28° Northeast 455 524 39,000  Level Jacksonville Center
07:54PM 31.1025 -82.3492 28° Northeast 455 524 39,000  Level Jacksonville Center
07:55PM 31.2131 -82.2781 29° Northeast 455 524 39,000 -50 Level Jacksonville Center
07:56PM 31.3275 -82.2042 29° Northeast 455 524 38,900  Descending Jacksonville Center
07:57PM 31.4378 -82.1328 29° Northeast 455 524 39,000 50 Climbing Jacksonville Center
07:58PM 31.5519 -82.0564 30° Northeast 455 524 39,000  Level Jacksonville Center
07:59PM 31.6767 -81.9769 28° Northeast 455 524 39,000  Level Jacksonville Center
08:00PM 31.7786 -81.9100 29° Northeast 455 524 39,000  Level Jacksonville Center
08:01PM 31.9053 -81.8281 29° Northeast 455 524 39,000  Level Jacksonville Center
08:02PM 32.0175 -81.7556 29° Northeast 461 531 39,000  Level Jacksonville Center
08:03PM 32.1233 -81.6856 29° Northeast 461 531 39,000 50 Level Jacksonville Center
08:04PM 32.2519 -81.6028 29° Northeast 461 531 39,100  Climbing Jacksonville Center
08:05PM 32.3533 -81.5350 29° Northeast 461 531 39,000 -50 Descending Jacksonville Center
08:06PM 32.4797 -81.4494 30° Northeast 461 531 39,000  Level Jacksonville Center
08:07PM 32.5936 -81.3736 29° Northeast 461 531 39,000  Level Jacksonville Center
08:08PM 32.7078 -81.3003 28° Northeast 461 531 39,000  Level Jacksonville Center
08:09PM 32.8214 -81.2214 30° Northeast 461 531 39,000  Level Jacksonville Center
08:10PM 32.9394 -81.1450 28° Northeast 461 531 39,000  Level Jacksonville Center
08:11PM 33.0553 -81.0661 30° Northeast 466 536 39,000  Level Jacksonville Center
08:12PM 33.1708 -80.9867 30° Northeast 471 542 39,000  Level Jacksonville Center
08:13PM 33.2867 -80.9097 29° Northeast 471 542 39,000  Level Jacksonville Center
08:14PM 33.4042 -80.8275 30° Northeast 471 542 39,000  Level Jacksonville Center
08:15PM 33.5197 -80.7500 29° Northeast 476 548 39,000  Level Jacksonville Center
08:16PM 33.6250 -80.6778 30° Northeast 476 548 39,000  Level Jacksonville Center
08:17PM 33.7425 -80.5972 30° Northeast 476 548 39,000  Level Jacksonville Center
08:18PM 33.8578 -80.5167 30° Northeast 481 554 39,000 -50 Level Jacksonville Center
08:19PM 33.9753 -80.4383 29° Northeast 481 554 38,900 -50 Descending Jacksonville Center
08:20PM 34.0886 -80.3600 30° Northeast 476 548 38,900 50 Level Jacksonville Center
08:21PM 34.2078 -80.2761 30° Northeast 481 554 39,000 50 Climbing Jacksonville Center
08:22PM 34.3228 -80.1947 30° Northeast 481 554 39,000  Level Jacksonville Center
08:23PM 34.4419 -80.1106 30° Northeast 481 554 39,000  Level Jacksonville Center
08:24PM 34.6469 -79.9644 30° Northeast 496 571 39,000  Level Washington Center
08:25PM 34.7603 -79.8819 31° Northeast 506 582 39,000  Level Washington Center
08:26PM 34.8803 -79.7997 29° Northeast 506 582 39,000 -254 Level Washington Center
08:27PM 35.0000 -79.7147 30° Northeast 519 597 38,500 -689 Descending Washington Center
08:28PM 35.1178 -79.6294 31° Northeast 511 588 37,600 -927 Descending Washington Center
08:29PM 35.2275 -79.5281 37° Northeast 505 581 36,600 -1,017 Descending Washington Center
08:30PM 35.3272 -79.4133 43° Northeast 494 568 35,600 -966 Descending Washington Center
08:31PM 35.4353 -79.2961 41° Northeast 499 574 34,700 -984 Descending Washington Center
08:32PM 35.5369 -79.1758 44° Northeast 499 574 33,600 -1,059 Descending Washington Center
08:33PM 35.6361 -79.0653 42° Northeast 499 574 32,600 -857 Descending Washington Center
08:34PM 35.7247 -78.9642 43° Northeast 484 557 31,900 -885 Descending Washington Center
08:35PM 35.8197 -78.8503 44° Northeast 477 549 30,800 -1,008 Descending Washington Center
08:36PM 35.9225 -78.7444 40° Northeast 472 543 29,900 -1,008 Descending Washington Center
08:37PM 36.0314 -78.6486 35° Northeast 477 549 28,800 -992 Descending Washington Center
08:38PM 36.1383 -78.5550 35° Northeast 477 549 27,900 -900 Descending Washington Center
08:39PM 36.2469 -78.4611 35° Northeast 472 543 27,000 -446 Descending Washington Center
08:40PM 36.3619 -78.3594 35° Northeast 472 543 27,000  Level Washington Center
08:41PM 36.4578 -78.2753 35° Northeast 472 543 27,000  Level Washington Center
08:42PM 36.5642 -78.1781 36° Northeast 467 537 27,000  Level Washington Center
08:43PM 36.6833 -78.0731 35° Northeast 462 532 27,000  Level Washington Center
08:44PM 36.7953 -77.9989 28° Northeast 462 532 27,000  Level Washington Center
08:45PM 36.9136 -77.9297 25° Northeast 455 524 27,000  Level Washington Center
08:46PM 37.0336 -77.8658 23° Northeast 460 529 27,000  Level Washington Center
08:47PM 37.1517 -77.7989 24° Northeast 460 529 27,000 -1,109 Level Washington Center
08:48PM 37.2697 -77.7344 23° Northeast 460 529 24,800 -2,182 Descending Washington Center
08:49PM 37.3814 -77.6722 24° Northeast 455 524 22,600 -1,426 Descending Washington Center
08:50PM 37.4889 -77.6125 24° Northeast 442 509 21,900 -750 Descending Washington Center
08:51PM 37.5942 -77.5497 25° Northeast 424 488 21,100 -1,576 Descending Washington Center
08:52PM 37.6994 -77.4919 23° Northeast 419 482 18,800 -2,132 Descending Washington Center
08:53PM 37.8003 -77.4367 23° Northeast 407 468 16,800 -2,016 Descending Washington Center
08:54PM 37.8972 -77.3811 24° Northeast 389 448 14,700 -2,034 Descending Washington Center
08:55PM 37.9939 -77.3281 23° Northeast 378 435 12,800 -1,664 Descending Washington Center
08:56PM 38.0842 -77.2775 24° Northeast 366 421 11,400 -1,230 Descending Washington Center
08:57PM 38.1703 -77.2292 24° Northeast 350 403 10,300 -712 Descending Washington Center
08:58PM 38.2544 -77.1808 24° Northeast 333 383 10,000 -655 Descending Washington Center
08:59PM 38.3239 -77.1294 30° Northeast 307 353 9,000 -1,279 Descending Washington Center
09:00PM 38.3914 -77.0697 35° Northeast 294 338 7,400 -1,008 Descending Washington Center
09:01PM 38.4589 -77.0128 33° Northeast 289 333 7,000 -605 Descending Washington Center
09:02PM 38.5297 -77.0061 North 253 291 6,200 -843 Descending Washington Center
09:03PM 38.5861 -77.0153 353° North 225 259 5,300 -1,056 Descending Washington Center
09:05PM 38.6500 -77.0167 359° North 168 193 3,700 -1,021 Descending Potomac TRACON
09:06PM 38.7000 -77.0167 360° North 173 199 2,900 -895 Descending Potomac TRACON
09:06PM 38.7500 -77.0333 345° North 172 198 2,000 -887 Descending Potomac TRACON
09:07PM 38.7833 -77.0333 360° North 133 153 1,200 -700 Descending Potomac TRACON
09:08PM 38.8167 -77.0333 360° North 119 137 600 -600 Descending Potomac TRACON
09:10PM 38.8500 -77.0333 North  Level FlightAware Approximate

Login

Don't have an account? Register now (free) for customized features, flight alerts, and more!